sensor_id;sensor_type;location;lat;lon;timestamp;P1;durP1;ratioP1;P2;durP2;ratioP2
27412;SDS011;14871;52.702;5.230;2024-03-06T00:01:41;49.67;;;29.63;;
27412;SDS011;14871;52.702;5.230;2024-03-06T00:04:06;45.78;;;29.08;;
27412;SDS011;14871;52.702;5.230;2024-03-06T00:06:32;51.10;;;28.85;;
27412;SDS011;14871;52.702;5.230;2024-03-06T00:08:58;50.03;;;30.52;;
27412;SDS011;14871;52.702;5.230;2024-03-06T00:11:25;49.42;;;28.05;;
27412;SDS011;14871;52.702;5.230;2024-03-06T00:13:51;47.30;;;28.13;;
27412;SDS011;14871;52.702;5.230;2024-03-06T00:16:17;48.38;;;29.55;;
27412;SDS011;14871;52.702;5.230;2024-03-06T00:18:43;51.15;;;30.70;;
27412;SDS011;14871;52.702;5.230;2024-03-06T00:21:08;55.28;;;32.08;;
27412;SDS011;14871;52.702;5.230;2024-03-06T00:23:35;49.45;;;30.40;;
27412;SDS011;14871;52.702;5.230;2024-03-06T00:26:02;51.63;;;30.27;;
27412;SDS011;14871;52.702;5.230;2024-03-06T00:28:28;47.22;;;29.73;;
27412;SDS011;14871;52.702;5.230;2024-03-06T00:30:54;52.72;;;31.42;;
27412;SDS011;14871;52.702;5.230;2024-03-06T00:33:20;49.65;;;30.92;;
27412;SDS011;14871;52.702;5.230;2024-03-06T00:35:46;59.58;;;33.97;;
27412;SDS011;14871;52.702;5.230;2024-03-06T00:38:12;57.95;;;34.05;;
27412;SDS011;14871;52.702;5.230;2024-03-06T00:40:38;58.38;;;34.17;;
27412;SDS011;14871;52.702;5.230;2024-03-06T00:43:04;57.25;;;33.33;;
27412;SDS011;14871;52.702;5.230;2024-03-06T00:45:30;60.60;;;32.90;;
27412;SDS011;14871;52.702;5.230;2024-03-06T00:47:55;51.13;;;32.03;;
27412;SDS011;14871;52.702;5.230;2024-03-06T00:50:21;51.30;;;31.13;;
27412;SDS011;14871;52.702;5.230;2024-03-06T00:52:47;46.85;;;29.83;;
27412;SDS011;14871;52.702;5.230;2024-03-06T00:55:13;52.92;;;29.80;;
27412;SDS011;14871;52.702;5.230;2024-03-06T00:57:39;48.30;;;27.55;;
27412;SDS011;14871;52.702;5.230;2024-03-06T01:00:05;52.00;;;29.10;;
27412;SDS011;14871;52.702;5.230;2024-03-06T01:02:35;45.55;;;27.48;;
27412;SDS011;14871;52.702;5.230;2024-03-06T01:05:02;40.40;;;25.05;;
27412;SDS011;14871;52.702;5.230;2024-03-06T01:07:28;41.15;;;23.83;;
27412;SDS011;14871;52.702;5.230;2024-03-06T01:09:55;39.03;;;23.05;;
27412;SDS011;14871;52.702;5.230;2024-03-06T01:12:22;33.30;;;20.92;;
27412;SDS011;14871;52.702;5.230;2024-03-06T01:14:48;31.10;;;20.23;;
27412;SDS011;14871;52.702;5.230;2024-03-06T01:17:14;35.38;;;19.73;;
27412;SDS011;14871;52.702;5.230;2024-03-06T01:19:39;33.42;;;20.38;;
27412;SDS011;14871;52.702;5.230;2024-03-06T01:22:05;30.45;;;19.63;;
27412;SDS011;14871;52.702;5.230;2024-03-06T01:24:31;29.70;;;18.25;;
27412;SDS011;14871;52.702;5.230;2024-03-06T01:26:57;24.08;;;17.27;;
27412;SDS011;14871;52.702;5.230;2024-03-06T01:29:24;23.58;;;16.17;;
27412;SDS011;14871;52.702;5.230;2024-03-06T01:31:49;23.10;;;13.95;;
27412;SDS011;14871;52.702;5.230;2024-03-06T01:34:15;21.65;;;13.88;;
27412;SDS011;14871;52.702;5.230;2024-03-06T01:36:41;17.13;;;13.32;;
27412;SDS011;14871;52.702;5.230;2024-03-06T01:39:06;21.75;;;13.80;;
27412;SDS011;14871;52.702;5.230;2024-03-06T01:41:32;19.42;;;12.60;;
27412;SDS011;14871;52.702;5.230;2024-03-06T01:43:57;42.78;;;26.85;;
27412;SDS011;14871;52.702;5.230;2024-03-06T01:46:23;50.35;;;30.73;;
27412;SDS011;14871;52.702;5.230;2024-03-06T01:48:49;62.58;;;36.00;;
27412;SDS011;14871;52.702;5.230;2024-03-06T01:51:15;65.30;;;39.08;;
27412;SDS011;14871;52.702;5.230;2024-03-06T01:53:41;71.00;;;40.20;;
27412;SDS011;14871;52.702;5.230;2024-03-06T01:56:07;71.50;;;40.30;;
27412;SDS011;14871;52.702;5.230;2024-03-06T01:58:36;71.00;;;39.45;;
27412;SDS011;14871;52.702;5.230;2024-03-06T02:01:03;68.20;;;39.03;;
27412;SDS011;14871;52.702;5.230;2024-03-06T02:03:31;66.00;;;38.45;;
27412;SDS011;14871;52.702;5.230;2024-03-06T02:05:57;58.15;;;36.08;;
27412;SDS011;14871;52.702;5.230;2024-03-06T02:08:25;61.55;;;36.15;;
27412;SDS011;14871;52.702;5.230;2024-03-06T02:10:51;61.88;;;37.25;;
27412;SDS011;14871;52.702;5.230;2024-03-06T02:13:17;61.05;;;36.72;;
27412;SDS011;14871;52.702;5.230;2024-03-06T02:15:44;57.92;;;37.78;;
27412;SDS011;14871;52.702;5.230;2024-03-06T02:18:10;58.42;;;37.00;;
27412;SDS011;14871;52.702;5.230;2024-03-06T02:20:39;60.88;;;38.58;;
27412;SDS011;14871;52.702;5.230;2024-03-06T02:23:05;58.28;;;37.22;;
27412;SDS011;14871;52.702;5.230;2024-03-06T02:25:31;62.03;;;37.17;;
27412;SDS011;14871;52.702;5.230;2024-03-06T02:27:57;58.20;;;38.67;;
27412;SDS011;14871;52.702;5.230;2024-03-06T02:30:23;60.67;;;38.05;;
27412;SDS011;14871;52.702;5.230;2024-03-06T02:32:49;59.38;;;39.15;;
27412;SDS011;14871;52.702;5.230;2024-03-06T02:35:15;58.42;;;37.38;;
27412;SDS011;14871;52.702;5.230;2024-03-06T02:37:44;63.70;;;37.78;;
27412;SDS011;14871;52.702;5.230;2024-03-06T02:40:10;63.28;;;38.53;;
27412;SDS011;14871;52.702;5.230;2024-03-06T02:42:36;64.97;;;39.78;;
27412;SDS011;14871;52.702;5.230;2024-03-06T02:45:05;69.88;;;40.92;;
27412;SDS011;14871;52.702;5.230;2024-03-06T02:47:32;62.88;;;39.90;;
27412;SDS011;14871;52.702;5.230;2024-03-06T02:49:57;59.97;;;38.40;;
27412;SDS011;14871;52.702;5.230;2024-03-06T02:52:23;67.72;;;40.75;;
27412;SDS011;14871;52.702;5.230;2024-03-06T02:54:48;68.53;;;40.25;;
27412;SDS011;14871;52.702;5.230;2024-03-06T02:57:14;65.50;;;40.72;;
27412;SDS011;14871;52.702;5.230;2024-03-06T02:59:40;68.40;;;40.42;;
27412;SDS011;14871;52.702;5.230;2024-03-06T03:02:05;68.88;;;41.50;;
27412;SDS011;14871;52.702;5.230;2024-03-06T03:04:31;65.68;;;39.85;;
27412;SDS011;14871;52.702;5.230;2024-03-06T03:06:57;62.33;;;40.25;;
27412;SDS011;14871;52.702;5.230;2024-03-06T03:09:23;65.95;;;40.97;;
27412;SDS011;14871;52.702;5.230;2024-03-06T03:11:49;64.53;;;39.05;;
27412;SDS011;14871;52.702;5.230;2024-03-06T03:14:14;66.97;;;40.95;;
27412;SDS011;14871;52.702;5.230;2024-03-06T03:16:40;66.45;;;39.55;;
27412;SDS011;14871;52.702;5.230;2024-03-06T03:19:07;68.57;;;39.83;;
27412;SDS011;14871;52.702;5.230;2024-03-06T03:21:33;66.95;;;41.25;;
27412;SDS011;14871;52.702;5.230;2024-03-06T03:23:59;65.70;;;41.30;;
27412;SDS011;14871;52.702;5.230;2024-03-06T03:26:25;64.97;;;39.28;;
27412;SDS011;14871;52.702;5.230;2024-03-06T03:28:50;64.90;;;40.42;;
27412;SDS011;14871;52.702;5.230;2024-03-06T03:31:16;63.92;;;40.17;;
27412;SDS011;14871;52.702;5.230;2024-03-06T03:33:42;64.22;;;40.30;;
27412;SDS011;14871;52.702;5.230;2024-03-06T03:36:08;66.32;;;42.05;;
27412;SDS011;14871;52.702;5.230;2024-03-06T03:38:35;69.53;;;42.80;;
27412;SDS011;14871;52.702;5.230;2024-03-06T03:41:06;65.43;;;40.15;;
27412;SDS011;14871;52.702;5.230;2024-03-06T03:43:33;65.85;;;39.85;;
27412;SDS011;14871;52.702;5.230;2024-03-06T03:45:58;61.55;;;40.17;;
27412;SDS011;14871;52.702;5.230;2024-03-06T03:48:24;66.32;;;40.97;;
27412;SDS011;14871;52.702;5.230;2024-03-06T03:50:50;77.03;;;41.20;;
27412;SDS011;14871;52.702;5.230;2024-03-06T03:53:16;59.03;;;39.72;;
27412;SDS011;14871;52.702;5.230;2024-03-06T03:55:41;64.20;;;40.70;;
27412;SDS011;14871;52.702;5.230;2024-03-06T03:58:07;70.78;;;40.72;;
27412;SDS011;14871;52.702;5.230;2024-03-06T04:00:33;76.18;;;41.58;;
27412;SDS011;14871;52.702;5.230;2024-03-06T04:02:58;72.82;;;41.42;;
27412;SDS011;14871;52.702;5.230;2024-03-06T04:05:24;66.45;;;42.35;;
27412;SDS011;14871;52.702;5.230;2024-03-06T04:07:50;68.05;;;40.88;;
27412;SDS011;14871;52.702;5.230;2024-03-06T04:10:16;64.28;;;39.03;;
27412;SDS011;14871;52.702;5.230;2024-03-06T04:12:42;69.38;;;40.90;;
27412;SDS011;14871;52.702;5.230;2024-03-06T04:15:09;62.80;;;39.05;;
27412;SDS011;14871;52.702;5.230;2024-03-06T04:17:34;78.63;;;42.33;;
27412;SDS011;14871;52.702;5.230;2024-03-06T04:20:01;64.32;;;41.00;;
27412;SDS011;14871;52.702;5.230;2024-03-06T04:22:28;68.30;;;41.70;;
27412;SDS011;14871;52.702;5.230;2024-03-06T04:24:54;65.15;;;40.42;;
27412;SDS011;14871;52.702;5.230;2024-03-06T04:27:20;66.88;;;39.38;;
27412;SDS011;14871;52.702;5.230;2024-03-06T04:29:46;63.70;;;39.60;;
27412;SDS011;14871;52.702;5.230;2024-03-06T04:32:12;69.03;;;40.90;;
27412;SDS011;14871;52.702;5.230;2024-03-06T04:34:38;71.55;;;41.85;;
27412;SDS011;14871;52.702;5.230;2024-03-06T04:37:03;65.80;;;40.17;;
27412;SDS011;14871;52.702;5.230;2024-03-06T04:39:29;68.60;;;40.33;;
27412;SDS011;14871;52.702;5.230;2024-03-06T04:41:55;67.38;;;40.63;;
27412;SDS011;14871;52.702;5.230;2024-03-06T04:44:21;69.40;;;41.47;;
27412;SDS011;14871;52.702;5.230;2024-03-06T04:46:49;67.25;;;41.17;;
27412;SDS011;14871;52.702;5.230;2024-03-06T04:49:15;63.22;;;38.33;;
27412;SDS011;14871;52.702;5.230;2024-03-06T04:51:41;64.93;;;38.47;;
27412;SDS011;14871;52.702;5.230;2024-03-06T04:54:06;62.88;;;38.65;;
27412;SDS011;14871;52.702;5.230;2024-03-06T04:56:33;59.05;;;37.33;;
27412;SDS011;14871;52.702;5.230;2024-03-06T04:58:59;67.03;;;39.10;;
27412;SDS011;14871;52.702;5.230;2024-03-06T05:01:28;65.47;;;38.53;;
27412;SDS011;14871;52.702;5.230;2024-03-06T05:03:54;65.25;;;38.67;;
27412;SDS011;14871;52.702;5.230;2024-03-06T05:06:21;63.08;;;38.55;;
27412;SDS011;14871;52.702;5.230;2024-03-06T05:08:47;67.18;;;39.45;;
27412;SDS011;14871;52.702;5.230;2024-03-06T05:11:13;67.50;;;39.83;;
27412;SDS011;14871;52.702;5.230;2024-03-06T05:13:39;64.50;;;39.15;;
27412;SDS011;14871;52.702;5.230;2024-03-06T05:16:05;67.50;;;38.15;;
27412;SDS011;14871;52.702;5.230;2024-03-06T05:18:33;67.10;;;40.65;;
27412;SDS011;14871;52.702;5.230;2024-03-06T05:20:59;73.10;;;39.83;;
27412;SDS011;14871;52.702;5.230;2024-03-06T05:23:25;67.00;;;39.50;;
27412;SDS011;14871;52.702;5.230;2024-03-06T05:25:51;66.80;;;40.63;;
27412;SDS011;14871;52.702;5.230;2024-03-06T05:28:16;71.53;;;42.13;;
27412;SDS011;14871;52.702;5.230;2024-03-06T05:30:42;74.97;;;42.15;;
27412;SDS011;14871;52.702;5.230;2024-03-06T05:33:07;80.95;;;47.05;;
27412;SDS011;14871;52.702;5.230;2024-03-06T05:35:33;85.43;;;44.83;;
27412;SDS011;14871;52.702;5.230;2024-03-06T05:37:59;85.60;;;44.95;;
27412;SDS011;14871;52.702;5.230;2024-03-06T05:40:24;87.30;;;46.17;;
27412;SDS011;14871;52.702;5.230;2024-03-06T05:42:50;86.05;;;46.38;;
27412;SDS011;14871;52.702;5.230;2024-03-06T05:45:16;80.10;;;44.60;;
27412;SDS011;14871;52.702;5.230;2024-03-06T05:47:42;93.35;;;48.80;;
27412;SDS011;14871;52.702;5.230;2024-03-06T05:50:07;82.82;;;47.80;;
27412;SDS011;14871;52.702;5.230;2024-03-06T05:52:35;87.57;;;47.00;;
27412;SDS011;14871;52.702;5.230;2024-03-06T05:55:01;96.25;;;47.75;;
27412;SDS011;14871;52.702;5.230;2024-03-06T05:57:27;93.32;;;47.65;;
27412;SDS011;14871;52.702;5.230;2024-03-06T05:59:54;99.45;;;49.65;;
27412;SDS011;14871;52.702;5.230;2024-03-06T06:02:19;89.70;;;48.90;;
27412;SDS011;14871;52.702;5.230;2024-03-06T06:04:45;96.93;;;47.90;;
27412;SDS011;14871;52.702;5.230;2024-03-06T06:07:11;99.05;;;49.10;;
27412;SDS011;14871;52.702;5.230;2024-03-06T06:09:37;101.57;;;50.05;;
27412;SDS011;14871;52.702;5.230;2024-03-06T06:12:02;101.00;;;50.33;;
27412;SDS011;14871;52.702;5.230;2024-03-06T06:14:28;92.55;;;48.90;;
27412;SDS011;14871;52.702;5.230;2024-03-06T06:16:54;89.60;;;48.20;;
27412;SDS011;14871;52.702;5.230;2024-03-06T06:19:21;91.78;;;49.08;;
27412;SDS011;14871;52.702;5.230;2024-03-06T06:21:47;93.95;;;47.00;;
27412;SDS011;14871;52.702;5.230;2024-03-06T06:24:13;96.45;;;49.55;;
27412;SDS011;14871;52.702;5.230;2024-03-06T06:26:39;86.30;;;47.67;;
27412;SDS011;14871;52.702;5.230;2024-03-06T06:29:04;94.30;;;48.63;;
27412;SDS011;14871;52.702;5.230;2024-03-06T06:31:30;84.80;;;46.35;;
27412;SDS011;14871;52.702;5.230;2024-03-06T06:33:56;91.63;;;46.60;;
27412;SDS011;14871;52.702;5.230;2024-03-06T06:36:22;93.00;;;48.25;;
27412;SDS011;14871;52.702;5.230;2024-03-06T06:38:48;89.05;;;47.17;;
27412;SDS011;14871;52.702;5.230;2024-03-06T06:41:14;92.25;;;46.25;;
27412;SDS011;14871;52.702;5.230;2024-03-06T06:43:42;91.00;;;46.22;;
27412;SDS011;14871;52.702;5.230;2024-03-06T06:46:08;85.78;;;42.05;;
27412;SDS011;14871;52.702;5.230;2024-03-06T06:48:33;92.35;;;44.38;;
27412;SDS011;14871;52.702;5.230;2024-03-06T06:50:59;88.82;;;43.17;;
27412;SDS011;14871;52.702;5.230;2024-03-06T06:53:29;86.30;;;43.65;;
27412;SDS011;14871;52.702;5.230;2024-03-06T06:55:55;85.53;;;42.85;;
27412;SDS011;14871;52.702;5.230;2024-03-06T06:58:20;82.53;;;43.03;;
27412;SDS011;14871;52.702;5.230;2024-03-06T07:00:46;85.50;;;43.40;;
27412;SDS011;14871;52.702;5.230;2024-03-06T07:03:11;89.70;;;44.38;;
27412;SDS011;14871;52.702;5.230;2024-03-06T07:05:37;90.95;;;42.88;;
27412;SDS011;14871;52.702;5.230;2024-03-06T07:08:03;91.72;;;45.08;;
27412;SDS011;14871;52.702;5.230;2024-03-06T07:10:29;88.03;;;44.20;;
27412;SDS011;14871;52.702;5.230;2024-03-06T07:12:55;89.10;;;46.28;;
27412;SDS011;14871;52.702;5.230;2024-03-06T07:15:20;88.30;;;43.80;;
27412;SDS011;14871;52.702;5.230;2024-03-06T07:17:46;92.28;;;44.03;;
27412;SDS011;14871;52.702;5.230;2024-03-06T07:20:12;88.57;;;43.55;;
27412;SDS011;14871;52.702;5.230;2024-03-06T07:22:39;83.57;;;43.53;;
27412;SDS011;14871;52.702;5.230;2024-03-06T07:25:05;77.63;;;40.83;;
27412;SDS011;14871;52.702;5.230;2024-03-06T07:27:31;79.18;;;42.45;;
27412;SDS011;14871;52.702;5.230;2024-03-06T07:29:56;87.80;;;41.60;;
27412;SDS011;14871;52.702;5.230;2024-03-06T07:32:23;79.50;;;41.30;;
27412;SDS011;14871;52.702;5.230;2024-03-06T07:34:50;77.57;;;40.58;;
27412;SDS011;14871;52.702;5.230;2024-03-06T07:37:16;77.90;;;41.38;;
27412;SDS011;14871;52.702;5.230;2024-03-06T07:39:41;74.57;;;39.90;;
27412;SDS011;14871;52.702;5.230;2024-03-06T07:42:07;88.18;;;42.25;;
27412;SDS011;14871;52.702;5.230;2024-03-06T07:44:32;78.47;;;40.45;;
27412;SDS011;14871;52.702;5.230;2024-03-06T07:47:00;77.82;;;41.95;;
27412;SDS011;14871;52.702;5.230;2024-03-06T07:49:26;90.55;;;44.45;;
27412;SDS011;14871;52.702;5.230;2024-03-06T07:51:51;91.18;;;44.38;;
27412;SDS011;14871;52.702;5.230;2024-03-06T07:54:17;88.97;;;44.30;;
27412;SDS011;14871;52.702;5.230;2024-03-06T07:56:43;80.53;;;43.75;;
27412;SDS011;14871;52.702;5.230;2024-03-06T07:59:08;83.65;;;42.97;;
27412;SDS011;14871;52.702;5.230;2024-03-06T08:01:36;85.45;;;43.33;;
27412;SDS011;14871;52.702;5.230;2024-03-06T08:04:01;78.15;;;42.03;;
27412;SDS011;14871;52.702;5.230;2024-03-06T08:06:27;77.93;;;41.25;;
27412;SDS011;14871;52.702;5.230;2024-03-06T08:08:54;75.80;;;40.85;;
27412;SDS011;14871;52.702;5.230;2024-03-06T08:11:20;71.30;;;39.75;;
27412;SDS011;14871;52.702;5.230;2024-03-06T08:13:46;80.30;;;39.67;;
27412;SDS011;14871;52.702;5.230;2024-03-06T08:16:13;78.13;;;39.22;;
27412;SDS011;14871;52.702;5.230;2024-03-06T08:18:39;75.03;;;39.45;;
27412;SDS011;14871;52.702;5.230;2024-03-06T08:21:05;72.75;;;39.22;;
27412;SDS011;14871;52.702;5.230;2024-03-06T08:23:31;75.22;;;40.90;;
27412;SDS011;14871;52.702;5.230;2024-03-06T08:25:58;74.45;;;41.47;;
27412;SDS011;14871;52.702;5.230;2024-03-06T08:28:24;76.47;;;40.38;;
27412;SDS011;14871;52.702;5.230;2024-03-06T08:30:50;66.25;;;39.92;;
27412;SDS011;14871;52.702;5.230;2024-03-06T08:33:17;72.05;;;39.70;;
27412;SDS011;14871;52.702;5.230;2024-03-06T08:35:43;76.72;;;41.65;;
27412;SDS011;14871;52.702;5.230;2024-03-06T08:38:08;76.93;;;43.13;;
27412;SDS011;14871;52.702;5.230;2024-03-06T08:40:34;82.80;;;44.70;;
27412;SDS011;14871;52.702;5.230;2024-03-06T08:43:00;83.63;;;44.58;;
27412;SDS011;14871;52.702;5.230;2024-03-06T08:45:26;79.82;;;44.67;;
27412;SDS011;14871;52.702;5.230;2024-03-06T08:47:51;84.07;;;44.70;;
27412;SDS011;14871;52.702;5.230;2024-03-06T08:50:20;74.82;;;43.75;;
27412;SDS011;14871;52.702;5.230;2024-03-06T08:52:46;75.18;;;44.80;;
27412;SDS011;14871;52.702;5.230;2024-03-06T08:55:12;80.28;;;45.85;;
27412;SDS011;14871;52.702;5.230;2024-03-06T08:57:38;78.90;;;45.67;;
27412;SDS011;14871;52.702;5.230;2024-03-06T09:00:04;77.65;;;43.97;;
27412;SDS011;14871;52.702;5.230;2024-03-06T09:02:35;77.75;;;43.97;;
27412;SDS011;14871;52.702;5.230;2024-03-06T09:05:01;71.10;;;43.03;;
27412;SDS011;14871;52.702;5.230;2024-03-06T09:07:29;78.78;;;43.50;;
27412;SDS011;14871;52.702;5.230;2024-03-06T09:09:55;66.30;;;39.60;;
27412;SDS011;14871;52.702;5.230;2024-03-06T09:12:21;75.90;;;42.25;;
27412;SDS011;14871;52.702;5.230;2024-03-06T09:14:47;66.75;;;42.78;;
27412;SDS011;14871;52.702;5.230;2024-03-06T09:17:13;67.55;;;40.15;;
27412;SDS011;14871;52.702;5.230;2024-03-06T09:19:39;63.72;;;39.13;;
27412;SDS011;14871;52.702;5.230;2024-03-06T09:22:05;63.70;;;37.03;;
27412;SDS011;14871;52.702;5.230;2024-03-06T09:24:32;61.55;;;37.50;;
27412;SDS011;14871;52.702;5.230;2024-03-06T09:26:58;55.92;;;35.88;;
27412;SDS011;14871;52.702;5.230;2024-03-06T09:29:23;58.90;;;35.13;;
27412;SDS011;14871;52.702;5.230;2024-03-06T09:31:49;56.95;;;36.55;;
27412;SDS011;14871;52.702;5.230;2024-03-06T09:34:15;53.90;;;33.80;;
27412;SDS011;14871;52.702;5.230;2024-03-06T09:36:50;52.85;;;33.30;;
27412;SDS011;14871;52.702;5.230;2024-03-06T09:39:16;55.33;;;34.55;;
27412;SDS011;14871;52.702;5.230;2024-03-06T09:41:44;57.55;;;35.03;;
27412;SDS011;14871;52.702;5.230;2024-03-06T09:44:11;54.25;;;33.70;;
27412;SDS011;14871;52.702;5.230;2024-03-06T09:46:37;52.85;;;33.05;;
27412;SDS011;14871;52.702;5.230;2024-03-06T09:49:02;52.10;;;34.10;;
27412;SDS011;14871;52.702;5.230;2024-03-06T09:51:29;49.67;;;31.67;;
27412;SDS011;14871;52.702;5.230;2024-03-06T09:53:55;47.17;;;31.92;;
27412;SDS011;14871;52.702;5.230;2024-03-06T09:56:21;49.45;;;32.47;;
27412;SDS011;14871;52.702;5.230;2024-03-06T09:58:47;50.95;;;33.33;;
27412;SDS011;14871;52.702;5.230;2024-03-06T10:01:12;50.15;;;31.88;;
27412;SDS011;14871;52.702;5.230;2024-03-06T10:03:39;50.90;;;32.15;;
27412;SDS011;14871;52.702;5.230;2024-03-06T10:06:06;43.28;;;30.20;;
27412;SDS011;14871;52.702;5.230;2024-03-06T10:08:32;47.30;;;31.00;;
27412;SDS011;14871;52.702;5.230;2024-03-06T10:10:58;44.03;;;31.98;;
27412;SDS011;14871;52.702;5.230;2024-03-06T10:13:24;46.13;;;30.15;;
27412;SDS011;14871;52.702;5.230;2024-03-06T10:16:00;46.10;;;31.50;;
27412;SDS011;14871;52.702;5.230;2024-03-06T10:18:30;43.88;;;30.42;;
27412;SDS011;14871;52.702;5.230;2024-03-06T10:20:57;45.70;;;29.42;;
27412;SDS011;14871;52.702;5.230;2024-03-06T10:23:23;41.58;;;29.05;;
27412;SDS011;14871;52.702;5.230;2024-03-06T10:25:50;44.35;;;31.00;;
27412;SDS011;14871;52.702;5.230;2024-03-06T10:28:17;41.78;;;30.23;;
27412;SDS011;14871;52.702;5.230;2024-03-06T10:30:50;41.28;;;29.70;;
27412;SDS011;14871;52.702;5.230;2024-03-06T10:33:17;43.75;;;31.25;;
27412;SDS011;14871;52.702;5.230;2024-03-06T10:35:46;42.67;;;30.45;;
27412;SDS011;14871;52.702;5.230;2024-03-06T10:38:16;44.47;;;29.60;;
27412;SDS011;14871;52.702;5.230;2024-03-06T10:40:45;42.20;;;28.52;;
27412;SDS011;14871;52.702;5.230;2024-03-06T10:43:11;42.38;;;29.35;;
27412;SDS011;14871;52.702;5.230;2024-03-06T10:48:11;44.08;;;31.15;;
27412;SDS011;14871;52.702;5.230;2024-03-06T10:50:42;43.67;;;30.20;;
27412;SDS011;14871;52.702;5.230;2024-03-06T10:53:13;44.85;;;29.33;;
27412;SDS011;14871;52.702;5.230;2024-03-06T10:55:40;41.78;;;28.15;;
27412;SDS011;14871;52.702;5.230;2024-03-06T10:58:09;42.25;;;29.52;;
27412;SDS011;14871;52.702;5.230;2024-03-06T11:00:44;42.97;;;29.80;;
27412;SDS011;14871;52.702;5.230;2024-03-06T11:03:12;43.60;;;29.70;;
27412;SDS011;14871;52.702;5.230;2024-03-06T11:05:38;43.40;;;30.77;;
27412;SDS011;14871;52.702;5.230;2024-03-06T11:08:10;43.25;;;29.10;;
27412;SDS011;14871;52.702;5.230;2024-03-06T11:10:37;41.90;;;29.92;;
27412;SDS011;14871;52.702;5.230;2024-03-06T11:13:24;45.42;;;30.67;;
27412;SDS011;14871;52.702;5.230;2024-03-06T11:15:51;45.10;;;31.77;;
27412;SDS011;14871;52.702;5.230;2024-03-06T11:26:47;40.60;;;27.95;;
27412;SDS011;14871;52.702;5.230;2024-03-06T11:29:23;42.20;;;28.88;;
27412;SDS011;14871;52.702;5.230;2024-03-06T11:31:57;36.63;;;27.27;;
27412;SDS011;14871;52.702;5.230;2024-03-06T11:34:28;38.05;;;27.83;;
27412;SDS011;14871;52.702;5.230;2024-03-06T11:36:58;37.95;;;26.73;;
27412;SDS011;14871;52.702;5.230;2024-03-06T11:39:32;40.23;;;27.00;;
27412;SDS011;14871;52.702;5.230;2024-03-06T11:41:59;34.00;;;25.02;;
27412;SDS011;14871;52.702;5.230;2024-03-06T11:44:26;33.67;;;23.88;;
27412;SDS011;14871;52.702;5.230;2024-03-06T11:46:59;34.17;;;25.10;;
27412;SDS011;14871;52.702;5.230;2024-03-06T11:49:27;33.70;;;24.85;;
27412;SDS011;14871;52.702;5.230;2024-03-06T11:54:26;32.60;;;23.35;;
27412;SDS011;14871;52.702;5.230;2024-03-06T11:56:54;30.70;;;23.02;;
27412;SDS011;14871;52.702;5.230;2024-03-06T11:59:22;33.97;;;24.08;;
27412;SDS011;14871;52.702;5.230;2024-03-06T12:01:49;30.65;;;22.33;;
27412;SDS011;14871;52.702;5.230;2024-03-06T12:04:16;31.35;;;22.65;;
27412;SDS011;14871;52.702;5.230;2024-03-06T12:06:43;30.88;;;22.83;;
27412;SDS011;14871;52.702;5.230;2024-03-06T12:09:08;31.10;;;22.15;;
27412;SDS011;14871;52.702;5.230;2024-03-06T12:11:36;30.10;;;22.70;;
27412;SDS011;14871;52.702;5.230;2024-03-06T12:14:02;32.05;;;23.45;;
27412;SDS011;14871;52.702;5.230;2024-03-06T12:16:28;37.95;;;25.02;;
27412;SDS011;14871;52.702;5.230;2024-03-06T12:18:55;37.35;;;26.27;;
27412;SDS011;14871;52.702;5.230;2024-03-06T12:21:27;34.80;;;25.90;;
27412;SDS011;14871;52.702;5.230;2024-03-06T12:24:02;35.85;;;25.13;;
27412;SDS011;14871;52.702;5.230;2024-03-06T12:26:31;37.28;;;24.75;;
27412;SDS011;14871;52.702;5.230;2024-03-06T12:29:04;35.33;;;25.80;;
27412;SDS011;14871;52.702;5.230;2024-03-06T12:31:31;35.78;;;23.85;;
27412;SDS011;14871;52.702;5.230;2024-03-06T12:33:57;32.30;;;23.98;;
27412;SDS011;14871;52.702;5.230;2024-03-06T12:36:27;30.80;;;22.10;;
27412;SDS011;14871;52.702;5.230;2024-03-06T12:38:55;32.30;;;23.30;;
27412;SDS011;14871;52.702;5.230;2024-03-06T12:41:21;32.80;;;24.15;;
27412;SDS011;14871;52.702;5.230;2024-03-06T12:43:47;33.35;;;23.25;;
27412;SDS011;14871;52.702;5.230;2024-03-06T12:46:12;29.75;;;22.13;;
27412;SDS011;14871;52.702;5.230;2024-03-06T12:48:38;29.15;;;22.23;;
27412;SDS011;14871;52.702;5.230;2024-03-06T12:51:04;30.38;;;22.17;;
27412;SDS011;14871;52.702;5.230;2024-03-06T12:53:29;29.33;;;22.33;;
27412;SDS011;14871;52.702;5.230;2024-03-06T12:55:57;29.35;;;22.63;;
27412;SDS011;14871;52.702;5.230;2024-03-06T12:58:23;30.98;;;22.85;;
27412;SDS011;14871;52.702;5.230;2024-03-06T13:00:49;28.55;;;22.15;;
27412;SDS011;14871;52.702;5.230;2024-03-06T13:03:17;30.35;;;22.50;;
27412;SDS011;14871;52.702;5.230;2024-03-06T13:05:43;27.38;;;21.17;;
27412;SDS011;14871;52.702;5.230;2024-03-06T13:08:08;31.05;;;21.67;;
27412;SDS011;14871;52.702;5.230;2024-03-06T13:10:38;29.90;;;22.60;;
27412;SDS011;14871;52.702;5.230;2024-03-06T13:13:05;30.80;;;23.50;;
27412;SDS011;14871;52.702;5.230;2024-03-06T13:15:31;31.08;;;22.63;;
27412;SDS011;14871;52.702;5.230;2024-03-06T13:18:00;28.30;;;22.80;;
27412;SDS011;14871;52.702;5.230;2024-03-06T13:20:32;31.60;;;23.92;;
27412;SDS011;14871;52.702;5.230;2024-03-06T13:22:58;28.42;;;22.15;;
27412;SDS011;14871;52.702;5.230;2024-03-06T13:25:25;31.75;;;22.90;;
27412;SDS011;14871;52.702;5.230;2024-03-06T13:27:51;29.52;;;23.00;;
27412;SDS011;14871;52.702;5.230;2024-03-06T13:30:19;28.98;;;21.83;;
27412;SDS011;14871;52.702;5.230;2024-03-06T13:32:45;29.38;;;22.55;;
27412;SDS011;14871;52.702;5.230;2024-03-06T13:35:12;27.50;;;21.48;;
27412;SDS011;14871;52.702;5.230;2024-03-06T13:37:41;27.08;;;20.88;;
27412;SDS011;14871;52.702;5.230;2024-03-06T13:40:07;27.52;;;21.70;;
27412;SDS011;14871;52.702;5.230;2024-03-06T13:42:37;29.85;;;21.13;;
27412;SDS011;14871;52.702;5.230;2024-03-06T13:45:03;27.35;;;20.90;;
27412;SDS011;14871;52.702;5.230;2024-03-06T13:47:29;31.33;;;23.42;;
27412;SDS011;14871;52.702;5.230;2024-03-06T13:49:56;26.67;;;22.20;;
27412;SDS011;14871;52.702;5.230;2024-03-06T13:52:21;25.00;;;20.58;;
27412;SDS011;14871;52.702;5.230;2024-03-06T13:54:48;28.15;;;22.40;;
27412;SDS011;14871;52.702;5.230;2024-03-06T13:57:14;29.77;;;21.67;;
27412;SDS011;14871;52.702;5.230;2024-03-06T13:59:40;29.52;;;22.13;;
27412;SDS011;14871;52.702;5.230;2024-03-06T14:02:06;30.88;;;22.63;;
27412;SDS011;14871;52.702;5.230;2024-03-06T14:04:33;30.33;;;21.83;;
27412;SDS011;14871;52.702;5.230;2024-03-06T14:06:59;25.83;;;19.95;;
27412;SDS011;14871;52.702;5.230;2024-03-06T14:09:25;26.80;;;19.55;;
27412;SDS011;14871;52.702;5.230;2024-03-06T14:11:51;27.35;;;21.33;;
27412;SDS011;14871;52.702;5.230;2024-03-06T14:14:18;29.02;;;20.30;;
27412;SDS011;14871;52.702;5.230;2024-03-06T14:16:44;26.52;;;19.95;;
27412;SDS011;14871;52.702;5.230;2024-03-06T14:19:10;29.70;;;22.50;;
27412;SDS011;14871;52.702;5.230;2024-03-06T14:21:36;28.15;;;21.92;;
27412;SDS011;14871;52.702;5.230;2024-03-06T14:24:03;31.35;;;22.95;;
27412;SDS011;14871;52.702;5.230;2024-03-06T14:26:32;31.17;;;23.75;;
27412;SDS011;14871;52.702;5.230;2024-03-06T14:28:59;27.80;;;21.40;;
27412;SDS011;14871;52.702;5.230;2024-03-06T14:31:25;31.38;;;23.48;;